Time;durP1;ratioP1;P1;durP2;ratioP2;P2;SDS_P1;SDS_P2;PMS_P1;PMS_P2;Temp;Humidity;BMP_temperature;BMP_pressure;BME280_temperature;BME280_humidity;BME280_pressure;Samples;Min_cycle;Max_cycle;Signal;HPM_P1;HPM_P2
2023/10/21 00:01:33;;;;;;;4.63;2.83;;;;;;;11.02;100.00;98319.84;5090887;28;20044;-35
2023/10/21 00:03:58;;;;;;;4.17;3.03;;;;;;;10.95;100.00;98327.53;5089586;28;20270;-35
2023/10/21 00:06:24;;;;;;;6.68;3.53;;;;;;;10.95;100.00;98316.72;5089994;28;20056;-35
2023/10/21 00:08:49;;;;;;;5.03;3.17;;;;;;;11.01;100.00;98341.78;5082021;28;20097;-35
2023/10/21 00:11:15;;;;;;;4.50;2.73;;;;;;;11.01;100.00;98339.88;5076146;28;20027;-35
2023/10/21 00:13:40;;;;;;;4.47;2.88;;;;;;;10.92;100.00;98330.81;5076254;28;20267;-35
2023/10/21 00:16:06;;;;;;;6.05;2.33;;;;;;;10.97;100.00;98344.25;5076130;28;20025;-35
2023/10/21 00:18:31;;;;;;;7.30;3.33;;;;;;;10.96;100.00;98342.66;5075884;28;20025;-35
2023/10/21 00:20:56;;;;;;;3.55;2.58;;;;;;;10.94;100.00;98352.97;5076722;28;20154;-35
2023/10/21 00:23:22;;;;;;;7.40;2.78;;;;;;;10.94;100.00;98355.69;5076067;28;20059;-35
2023/10/21 00:25:48;;;;;;;5.25;2.90;;;;;;;10.93;100.00;98356.78;5076589;28;20032;-35
2023/10/21 00:28:13;;;;;;;4.15;2.70;;;;;;;10.87;100.00;98355.22;5075938;28;20539;-35
2023/10/21 00:30:38;;;;;;;6.68;3.55;;;;;;;10.92;100.00;98359.78;5076868;28;20036;-35
2023/10/21 00:33:04;;;;;;;4.87;3.00;;;;;;;10.92;100.00;98371.38;5075613;28;20111;-35
2023/10/21 00:35:32;;;;;;;7.18;3.50;;;;;;;10.93;100.00;98374.88;5075890;28;20048;-35
2023/10/21 00:37:57;;;;;;;8.27;3.10;;;;;;;10.92;100.00;98376.00;5076243;28;20032;-35
2023/10/21 00:40:23;;;;;;;5.70;2.70;;;;;;;10.95;100.00;98383.53;5075817;28;20067;-35
2023/10/21 00:42:48;;;;;;;5.68;3.28;;;;;;;10.94;100.00;98387.34;5075685;28;20025;-35
2023/10/21 00:45:14;;;;;;;4.18;3.03;;;;;;;10.94;100.00;98398.16;5076245;28;20138;-35
2023/10/21 00:47:39;;;;;;;5.97;2.85;;;;;;;10.98;100.00;98389.16;5075641;28;20036;-35
2023/10/21 00:50:05;;;;;;;11.50;3.67;;;;;;;10.94;100.00;98384.63;5075890;28;20449;-35
2023/10/21 00:52:31;;;;;;;6.10;3.20;;;;;;;11.02;100.00;98397.47;5075538;28;20050;-35
2023/10/21 00:54:59;;;;;;;7.68;3.50;;;;;;;10.90;100.00;98383.59;5075810;28;20591;-35
2023/10/21 00:57:26;;;;;;;6.10;3.40;;;;;;;10.96;100.00;98407.56;5075909;28;20049;-35
2023/10/21 00:59:52;;;;;;;5.43;3.20;;;;;;;10.99;100.00;98417.81;5075663;28;20028;-35
2023/10/21 01:02:17;;;;;;;5.55;2.70;;;;;;;10.96;100.00;98410.25;5075782;28;20029;-35
2023/10/21 01:04:43;;;;;;;5.25;2.58;;;;;;;10.97;100.00;98419.97;5076079;28;20028;-35
2023/10/21 01:07:16;;;;;;;7.82;3.08;;;;;;;10.98;100.00;98423.47;5075277;28;20484;-35
2023/10/21 01:09:41;;;;;;;4.88;3.00;;;;;;;10.97;100.00;98428.09;5075497;28;20043;-35
2023/10/21 01:12:07;;;;;;;5.00;2.50;;;;;;;10.86;100.00;98407.72;5074947;28;20469;-35
2023/10/21 01:14:32;;;;;;;7.13;2.70;;;;;;;10.99;100.00;98433.22;5075088;28;20035;-35
2023/10/21 01:16:58;;;;;;;6.73;3.37;;;;;;;10.93;100.00;98424.38;5074738;28;20032;-35
2023/10/21 01:19:23;;;;;;;5.57;2.67;;;;;;;10.98;100.00;98426.19;5074693;28;20031;-35
2023/10/21 01:21:49;;;;;;;6.90;2.85;;;;;;;10.96;100.00;98437.31;5074369;28;20263;-35
2023/10/21 01:24:14;;;;;;;4.53;2.90;;;;;;;10.97;100.00;98430.78;5075454;28;20097;-35
2023/10/21 01:26:39;;;;;;;6.47;2.83;;;;;;;10.89;100.00;98423.34;5075203;28;20268;-35
2023/10/21 01:29:10;;;;;;;5.03;2.83;;;;;;;10.95;100.00;98435.69;5074486;28;20058;-35
2023/10/21 01:31:36;;;;;;;4.93;2.63;;;;;;;10.90;100.00;98430.38;5074600;28;20074;-35
2023/10/21 01:34:01;;;;;;;5.18;3.65;;;;;;;11.00;100.00;98451.84;5074745;28;20040;-35
2023/10/21 01:36:27;;;;;;;8.00;3.33;;;;;;;10.99;100.00;98454.84;5075200;28;20510;-35
2023/10/21 01:38:53;;;;;;;5.95;3.40;;;;;;;10.96;100.00;98444.63;5074651;28;20067;-35
2023/10/21 01:41:18;;;;;;;8.50;3.80;;;;;;;11.02;100.00;98460.47;5074621;28;20036;-35
2023/10/21 01:43:44;;;;;;;7.60;3.35;;;;;;;11.02;100.00;98455.06;5074266;28;20399;-35
2023/10/21 01:46:10;;;;;;;6.53;3.80;;;;;;;11.05;100.00;98454.47;5074773;28;20083;-35
2023/10/21 01:48:35;;;;;;;4.32;3.22;;;;;;;11.09;100.00;98458.22;5074474;28;20427;-35
2023/10/21 01:51:04;;;;;;;5.50;3.67;;;;;;;11.13;100.00;98460.34;5075252;28;20396;-35
2023/10/21 01:53:34;;;;;;;7.00;3.80;;;;;;;11.13;100.00;98449.53;5074821;28;20275;-35
2023/10/21 01:56:03;;;;;;;6.38;3.83;;;;;;;11.17;100.00;98458.66;5074556;28;20031;-35
2023/10/21 01:58:29;;;;;;;5.50;3.72;;;;;;;11.20;100.00;98455.38;5074196;28;20032;-35
2023/10/21 02:00:54;;;;;;;5.05;3.45;;;;;;;11.17;100.00;98456.75;5074786;28;20024;-35
2023/10/21 02:03:19;;;;;;;5.50;3.60;;;;;;;11.23;100.00;98465.63;5072916;28;20036;-35
2023/10/21 02:05:45;;;;;;;5.70;3.77;;;;;;;11.20;100.00;98463.47;5074214;28;20273;-35
2023/10/21 02:08:10;;;;;;;4.97;3.30;;;;;;;11.19;100.00;98465.38;5074056;28;20025;-35
2023/10/21 02:10:39;;;;;;;7.10;4.18;;;;;;;11.26;100.00;98470.41;5073432;28;20086;-35
2023/10/21 02:13:04;;;;;;;6.75;3.72;;;;;;;11.26;100.00;98475.81;5073674;28;20021;-35
2023/10/21 02:15:29;;;;;;;7.53;3.63;;;;;;;11.29;100.00;98481.47;5073969;28;20039;-35
2023/10/21 02:17:55;;;;;;;6.77;3.60;;;;;;;11.27;100.00;98480.13;5073633;28;20364;-35
2023/10/21 02:20:20;;;;;;;6.45;3.50;;;;;;;11.28;100.00;98484.47;5073918;28;20052;-35
2023/10/21 02:22:45;;;;;;;6.22;3.50;;;;;;;11.18;100.00;98480.00;5073856;28;20452;-35
2023/10/21 02:25:12;;;;;;;9.50;3.60;;;;;;;11.28;100.00;98484.47;5074200;28;20059;-35
2023/10/21 02:27:39;;;;;;;6.18;3.40;;;;;;;11.29;100.00;98494.19;5073715;28;20040;-35
2023/10/21 02:30:07;;;;;;;6.88;3.70;;;;;;;11.29;100.00;98497.69;5074003;28;20526;-35
2023/10/21 02:32:32;;;;;;;6.72;3.40;;;;;;;11.26;100.00;98494.78;5073479;28;20048;-35
2023/10/21 02:34:57;;;;;;;6.30;3.57;;;;;;;11.24;100.00;98502.38;5073527;28;20028;-35
2023/10/21 02:37:23;;;;;;;5.23;3.50;;;;;;;11.32;100.00;98502.53;5073603;28;20035;-35
2023/10/21 02:39:48;;;;;;;4.22;3.30;;;;;;;11.25;100.00;98498.56;5074195;28;20461;-35
2023/10/21 02:42:14;;;;;;;7.72;3.80;;;;;;;11.33;100.00;98511.47;5073390;28;20056;-35
2023/10/21 02:44:39;;;;;;;8.27;3.60;;;;;;;11.32;100.00;98518.78;5073616;28;20025;-35
2023/10/21 02:47:04;;;;;;;4.77;3.33;;;;;;;11.34;100.00;98508.44;5074424;28;20040;-35
2023/10/21 02:49:30;;;;;;;4.87;3.43;;;;;;;11.38;100.00;98522.19;5073613;28;20290;-35
2023/10/21 02:51:55;;;;;;;5.60;3.30;;;;;;;11.35;100.00;98515.47;5073824;28;20338;-35
2023/10/21 02:54:21;;;;;;;7.43;3.70;;;;;;;11.39;100.00;98523.81;5073201;28;20086;-35
2023/10/21 02:56:46;;;;;;;5.57;3.27;;;;;;;11.41;100.00;98518.09;5073808;28;20127;-35
2023/10/21 02:59:12;;;;;;;5.65;3.40;;;;;;;11.41;100.00;98527.00;5073506;28;20020;-35
2023/10/21 03:01:37;;;;;;;8.07;3.33;;;;;;;11.40;100.00;98541.66;5074060;28;20028;-35
2023/10/21 03:04:03;;;;;;;5.63;3.67;;;;;;;11.42;100.00;98541.34;5073111;28;20367;-35
2023/10/21 03:06:28;;;;;;;8.20;3.47;;;;;;;11.45;100.00;98533.47;5073938;28;20417;-35
2023/10/21 03:08:53;;;;;;;5.93;3.17;;;;;;;11.45;100.00;98538.06;5073442;28;20102;-35
2023/10/21 03:11:18;;;;;;;7.43;3.73;;;;;;;11.45;100.00;98538.88;5073710;28;20273;-35
2023/10/21 03:13:44;;;;;;;7.40;3.10;;;;;;;11.45;100.00;98538.06;5073295;28;20029;-35
2023/10/21 03:16:15;;;;;;;7.13;3.15;;;;;;;11.40;100.00;98536.22;5073237;28;20357;-35
2023/10/21 03:18:41;;;;;;;5.53;3.10;;;;;;;11.49;100.00;98558.84;5074080;28;20021;-35
2023/10/21 03:21:07;;;;;;;6.72;3.10;;;;;;;11.42;100.00;98553.00;5073518;28;20032;-35
2023/10/21 03:23:33;;;;;;;5.32;3.20;;;;;;;11.48;100.00;98556.44;5073149;28;20515;-35
2023/10/21 03:26:01;;;;;;;6.70;3.50;;;;;;;11.41;100.00;98548.66;5073486;28;20033;-35
2023/10/21 03:28:27;;;;;;;5.32;3.28;;;;;;;11.47;100.00;98558.34;5072912;28;20033;-35
2023/10/21 03:31:10;;;;;;;4.95;3.40;;;;;;;11.40;100.00;98560.59;5073549;28;20060;-35
2023/10/21 03:33:35;;;;;;;6.65;3.42;;;;;;;11.39;100.00;98564.41;5073217;28;20028;-35
2023/10/21 03:36:04;;;;;;;5.75;3.20;;;;;;;11.39;100.00;98564.41;5073656;28;20024;-35
2023/10/21 03:38:30;;;;;;;4.05;3.58;;;;;;;11.31;100.00;98567.75;5072705;28;20066;-35
2023/10/21 03:40:55;;;;;;;6.90;3.13;;;;;;;11.31;100.00;98570.44;5073928;28;20028;-35
2023/10/21 03:43:21;;;;;;;5.50;3.70;;;;;;;11.32;100.00;98577.47;5074580;28;20043;-35
2023/10/21 03:45:46;;;;;;;6.25;3.22;;;;;;;11.28;100.00;98576.47;5077065;28;20021;-35
2023/10/21 03:48:11;;;;;;;7.07;3.03;;;;;;;11.25;100.00;98577.84;5077312;28;20056;-35
2023/10/21 03:50:37;;;;;;;6.13;3.10;;;;;;;11.28;100.00;98592.69;5076775;28;20020;-35
2023/10/21 03:53:03;;;;;;;7.03;2.93;;;;;;;11.23;100.00;98584.66;5077200;28;20043;-35
2023/10/21 03:55:28;;;;;;;4.13;2.97;;;;;;;11.29;100.00;98605.94;5077109;28;20634;-35
2023/10/21 03:57:54;;;;;;;6.95;2.80;;;;;;;11.28;100.00;98598.91;5076053;28;20040;-35
2023/10/21 04:00:20;;;;;;;;;;;;;;;11.33;100.00;98611.56;5077521;28;20032;-35
2023/10/21 04:02:45;;;;;;;6.85;3.10;;;;;;;11.30;100.00;98612.13;5076454;28;20375;-35
2023/10/21 04:05:10;;;;;;;7.60;2.97;;;;;;;11.29;100.00;98615.94;5076134;28;20078;-35
2023/10/21 04:07:36;;;;;;;8.43;4.00;;;;;;;11.30;100.00;98617.53;5076337;28;20302;-35
2023/10/21 04:10:01;;;;;;;6.43;2.87;;;;;;;11.32;100.00;98626.16;5076600;28;20317;-35
2023/10/21 04:12:27;;;;;;;8.90;2.90;;;;;;;11.33;100.00;98623.19;5076343;28;20777;-35
2023/10/21 04:14:52;;;;;;;3.95;2.90;;;;;;;11.20;100.00;98606.84;5076394;28;20082;-35
2023/10/21 04:17:18;;;;;;;4.70;2.70;;;;;;;11.32;100.00;98635.13;5075906;28;20415;-35
2023/10/21 04:19:44;;;;;;;7.32;3.15;;;;;;;11.31;100.00;98630.78;5076793;28;20274;-35
2023/10/21 04:22:09;;;;;;;6.88;2.78;;;;;;;11.39;100.00;98647.47;5076160;28;20029;-35
2023/10/21 04:24:34;;;;;;;6.80;3.45;;;;;;;11.45;100.00;98651.72;5076142;28;20070;-35
2023/10/21 04:27:00;;;;;;;6.37;2.83;;;;;;;11.47;100.00;98650.34;5076077;28;20033;-35
2023/10/21 04:29:25;;;;;;;4.83;2.73;;;;;;;11.51;100.00;98655.97;5076506;28;20267;-35
2023/10/21 04:31:50;;;;;;;4.10;2.77;;;;;;;11.53;100.00;98654.59;5076562;28;20322;-35
2023/10/21 04:34:16;;;;;;;6.73;2.80;;;;;;;11.57;100.00;98663.75;5076533;28;20456;-35
2023/10/21 04:36:41;;;;;;;7.53;3.03;;;;;;;11.56;100.00;98664.03;5076195;28;20307;-35
2023/10/21 04:39:09;;;;;;;4.50;2.70;;;;;;;11.58;100.00;98670.78;5076174;28;20024;-35
2023/10/21 04:41:35;;;;;;;7.40;3.15;;;;;;;11.58;100.00;98676.19;5076311;28;20258;-35
2023/10/21 04:44:00;;;;;;;6.73;3.00;;;;;;;11.58;100.00;98672.69;5076334;28;20380;-35
2023/10/21 04:46:25;;;;;;;7.17;3.00;;;;;;;11.57;100.00;98674.59;5076312;28;20044;-35
2023/10/21 04:48:51;;;;;;;5.17;2.80;;;;;;;11.56;100.00;98678.38;5076164;28;20263;-35
2023/10/21 04:51:17;;;;;;;5.75;2.97;;;;;;;11.57;100.00;98690.81;5075319;28;20050;-35
2023/10/21 04:53:42;;;;;;;6.57;2.78;;;;;;;11.59;100.00;98690.53;5075530;28;20029;-35
2023/10/21 04:56:07;;;;;;;8.73;3.23;;;;;;;11.53;100.00;98697.91;5074904;28;20024;-35
2023/10/21 04:58:34;;;;;;;7.17;3.17;;;;;;;11.55;100.00;98701.13;5075121;28;20358;-35
2023/10/21 05:00:59;;;;;;;5.40;2.50;;;;;;;11.53;100.00;98697.91;5075974;28;20036;-35
2023/10/21 05:03:24;;;;;;;9.60;3.20;;;;;;;11.41;100.00;98683.97;5075437;28;20473;-35
2023/10/21 05:05:50;;;;;;;7.67;3.17;;;;;;;11.48;100.00;98708.81;5075903;28;20270;-35
2023/10/21 05:08:15;;;;;;;7.25;2.80;;;;;;;11.48;100.00;98703.38;5075290;28;20058;-35
2023/10/21 05:10:40;;;;;;;5.87;3.17;;;;;;;11.42;100.00;98711.84;5075592;28;20033;-35
2023/10/21 05:13:06;;;;;;;6.60;3.03;;;;;;;11.43;100.00;98711.56;5075188;28;20258;-36
2023/10/21 05:15:31;;;;;;;8.73;2.77;;;;;;;11.41;100.00;98727.28;5075221;28;20029;-35
2023/10/21 05:17:57;;;;;;;6.07;2.83;;;;;;;11.38;100.00;98725.16;5074959;28;20403;-36
2023/10/21 05:20:22;;;;;;;5.10;2.80;;;;;;;11.37;100.00;98728.13;5075345;28;20163;-35
2023/10/21 05:22:48;;;;;;;8.35;3.67;;;;;;;11.25;100.00;98723.94;5075536;28;20107;-35
2023/10/21 05:25:13;;;;;;;9.25;2.85;;;;;;;11.32;100.00;98737.94;5075229;28;20032;-35
2023/10/21 05:27:39;;;;;;;7.67;3.27;;;;;;;11.35;100.00;98740.06;5074908;28;20078;-36
2023/10/21 05:30:04;;;;;;;9.00;3.35;;;;;;;11.40;100.00;98741.09;5075103;28;20262;-36
2023/10/21 05:32:30;;;;;;;7.40;3.10;;;;;;;11.40;100.00;98749.22;5074838;28;20017;-35
2023/10/21 05:34:55;;;;;;;5.22;2.88;;;;;;;11.36;100.00;98748.97;5075618;28;20021;-36
2023/10/21 05:37:21;;;;;;;8.27;2.88;;;;;;;11.39;100.00;98756.53;5074573;28;20378;-36
2023/10/21 05:39:46;;;;;;;7.13;2.50;;;;;;;11.41;100.00;98754.31;5075018;28;20384;-36
2023/10/21 05:42:11;;;;;;;7.20;3.00;;;;;;;11.40;100.00;98760.84;5075453;28;20599;-35
2023/10/21 05:44:37;;;;;;;5.67;3.37;;;;;;;11.40;100.00;98755.44;5075324;28;20059;-35
2023/10/21 05:47:03;;;;;;;9.70;3.10;;;;;;;11.40;100.00;98763.53;5075374;28;20296;-35
2023/10/21 05:49:28;;;;;;;7.35;3.25;;;;;;;11.44;100.00;98759.19;5074436;28;20410;-36
2023/10/21 05:51:53;;;;;;;8.47;3.30;;;;;;;11.42;100.00;98774.06;5075007;28;20032;-36
2023/10/21 05:54:19;;;;;;;6.83;2.97;;;;;;;11.42;100.00;98771.38;5074311;28;20400;-35
2023/10/21 05:56:44;;;;;;;5.03;3.10;;;;;;;11.43;100.00;98784.63;5074873;28;20611;-35
2023/10/21 05:59:09;;;;;;;5.23;2.93;;;;;;;11.47;100.00;98782.97;5074304;28;20267;-36
2023/10/21 06:01:36;;;;;;;6.53;3.17;;;;;;;11.49;100.00;98779.97;5074530;28;20377;-36
2023/10/21 06:04:01;;;;;;;8.77;3.83;;;;;;;11.52;100.00;98792.94;5074176;28;20029;-36
2023/10/21 06:06:26;;;;;;;6.97;3.33;;;;;;;11.55;100.00;98795.06;5073687;28;20031;-36
2023/10/21 06:08:52;;;;;;;6.85;4.13;;;;;;;11.57;100.00;98796.41;5074327;28;20021;-35
2023/10/21 06:11:18;;;;;;;8.52;3.17;;;;;;;11.59;100.00;98802.31;5074052;28;20381;-35
2023/10/21 06:13:43;;;;;;;7.43;2.95;;;;;;;11.59;100.00;98802.31;5074034;28;20039;-35
2023/10/21 06:16:08;;;;;;;8.50;2.90;;;;;;;11.62;100.00;98811.78;5074254;28;20032;-35
2023/10/21 06:18:34;;;;;;;5.30;2.95;;;;;;;11.65;100.00;98813.09;5073796;28;20377;-35
2023/10/21 06:20:59;;;;;;;7.25;2.70;;;;;;;11.67;100.00;98816.34;5074218;28;20100;-36
2023/10/21 06:23:25;;;;;;;7.97;2.77;;;;;;;11.69;100.00;98824.97;5074138;28;20021;-36
2023/10/21 06:25:50;;;;;;;7.68;2.70;;;;;;;11.71;100.00;98828.19;5073568;28;20035;-36
2023/10/21 06:28:16;;;;;;;8.50;2.97;;;;;;;11.70;100.00;98826.56;5073852;28;20090;-36
2023/10/21 06:30:41;;;;;;;5.18;2.97;;;;;;;11.75;100.00;98838.16;5073809;28;20460;-35
2023/10/21 06:33:10;;;;;;;7.93;3.03;;;;;;;11.78;100.00;98843.00;5074277;28;20025;-35
2023/10/21 06:35:37;;;;;;;6.28;3.17;;;;;;;11.82;100.00;98841.38;5074540;28;20127;-35
2023/10/21 06:38:03;;;;;;;8.38;2.90;;;;;;;11.85;100.00;98850.81;5073589;28;20107;-35
2023/10/21 06:40:29;;;;;;;5.72;2.70;;;;;;;11.83;100.00;98839.47;5074167;28;20563;-35
2023/10/21 06:42:56;;;;;;;6.25;2.55;;;;;;;11.88;100.00;98850.25;5073369;28;20032;-35
2023/10/21 06:45:21;;;;;;;6.70;2.97;;;;;;;11.92;100.00;98862.13;5073869;28;20039;-35
2023/10/21 06:47:47;;;;;;;9.98;3.05;;;;;;;11.99;100.00;98873.41;5073814;28;20111;-35
2023/10/21 06:50:12;;;;;;;8.90;3.27;;;;;;;12.02;100.00;98872.84;5073873;28;20036;-35
2023/10/21 06:52:37;;;;;;;5.93;2.87;;;;;;;12.02;100.00;98872.84;5073203;28;20306;-35
2023/10/21 06:55:03;;;;;;;5.47;2.90;;;;;;;12.09;100.00;98878.69;5073530;28;20350;-35
2023/10/21 06:57:28;;;;;;;8.43;3.25;;;;;;;12.07;100.00;98874.69;5073760;28;20080;-35
2023/10/21 06:59:55;;;;;;;8.65;3.50;;;;;;;12.12;100.00;98882.75;5073781;28;20445;-35
2023/10/21 07:02:21;;;;;;;9.75;3.83;;;;;;;12.11;100.00;98884.66;5073439;28;20028;-35
2023/10/21 07:04:46;;;;;;;6.93;3.50;;;;;;;12.21;100.00;98899.19;5073457;28;20040;-35
2023/10/21 07:07:11;;;;;;;6.00;3.03;;;;;;;12.25;100.00;98897.47;5073084;28;20317;-35
2023/10/21 07:09:37;;;;;;;5.60;2.42;;;;;;;12.23;100.00;98896.97;5073461;28;20020;-35
2023/10/21 07:12:04;;;;;;;5.25;2.25;;;;;;;12.28;100.00;98910.47;5073328;28;20044;-35
2023/10/21 07:14:29;;;;;;;5.55;2.65;;;;;;;12.31;100.00;98912.63;5073824;28;20025;-35
2023/10/21 07:16:55;;;;;;;5.97;2.53;;;;;;;12.33;100.00;98918.53;5073483;28;20039;-35
2023/10/21 07:19:21;;;;;;;4.03;1.98;;;;;;;12.33;100.00;98921.25;5075728;28;20099;-35
2023/10/21 07:21:47;;;;;;;5.88;1.98;;;;;;;12.32;100.00;98927.78;5077618;28;20048;-35
2023/10/21 07:24:12;;;;;;;6.03;1.98;;;;;;;12.29;100.00;98929.13;5077125;28;20435;-35
2023/10/21 07:26:37;;;;;;;4.05;2.00;;;;;;;12.38;100.00;98945.56;5077225;28;20029;-35
2023/10/21 07:29:03;;;;;;;5.93;1.90;;;;;;;12.38;100.00;98957.22;5077470;28;20033;-35
2023/10/21 07:31:28;;;;;;;4.68;2.13;;;;;;;12.37;100.00;98965.66;5076849;28;20091;-35
2023/10/21 07:33:54;;;;;;;3.55;1.83;;;;;;;12.36;100.00;98972.19;5077104;28;20029;-35
2023/10/21 07:36:19;;;;;;;3.42;1.77;;;;;;;12.35;100.00;98997.69;5077506;28;20020;-35
2023/10/21 07:38:44;;;;;;;3.40;1.58;;;;;;;12.32;100.00;98995.53;5076725;28;20063;-35
2023/10/21 07:41:11;;;;;;;3.17;1.25;;;;;;;12.25;100.00;99005.88;5077478;28;20028;-35
2023/10/21 07:43:37;;;;;;;2.33;1.00;;;;;;;12.20;100.00;99008.66;5076812;28;20040;-35
2023/10/21 07:46:03;;;;;;;3.13;1.23;;;;;;;12.25;100.00;99022.13;5076561;28;20028;-35
2023/10/21 07:48:29;;;;;;;1.77;0.73;;;;;;;12.23;100.00;99029.75;5076437;28;20041;-35
2023/10/21 07:50:55;;;;;;;2.55;0.57;;;;;;;12.11;100.00;99030.16;5077299;28;20038;-35
2023/10/21 07:53:20;;;;;;;2.45;0.52;;;;;;;12.12;100.00;99034.47;5076630;28;20052;-35
2023/10/21 07:55:48;;;;;;;2.00;0.63;;;;;;;12.20;100.00;99052.00;5076948;28;20028;-35
2023/10/21 07:58:14;;;;;;;4.57;0.50;;;;;;;12.17;100.00;99053.38;5076802;28;20045;-35
2023/10/21 08:00:39;;;;;;;2.38;0.50;;;;;;;12.22;100.00;99055.25;5076542;28;20025;-35
2023/10/21 08:03:05;;;;;;;3.20;0.70;;;;;;;12.27;100.00;99063.34;5077033;28;20020;-35
2023/10/21 08:05:30;;;;;;;1.70;0.50;;;;;;;12.27;100.00;99064.13;5077224;28;20028;-35
2023/10/21 08:07:56;;;;;;;2.78;0.60;;;;;;;12.28;100.00;99076.59;5076136;28;20111;-35
2023/10/21 08:10:22;;;;;;;1.48;0.80;;;;;;;12.27;100.00;99085.00;5076660;28;20028;-35
2023/10/21 08:12:47;;;;;;;;;;;;;;;12.33;100.00;99089.28;5076708;28;20033;-35
2023/10/21 08:15:13;;;;;;;1.92;0.60;;;;;;;12.23;100.00;99083.97;5076221;28;19919;-35
2023/10/21 08:17:38;;;;;;;2.55;0.50;;;;;;;12.24;100.00;99085.56;5076199;28;20123;-35
2023/10/21 08:20:04;;;;;;;1.48;0.65;;;;;;;12.28;100.00;99097.47;5076733;28;20035;-35
2023/10/21 08:22:30;;;;;;;2.78;0.65;;;;;;;12.29;100.00;99099.88;5076124;28;20021;-35
2023/10/21 08:24:56;;;;;;;1.88;0.65;;;;;;;12.34;100.00;99099.84;5076679;28;20016;-35
2023/10/21 08:27:21;;;;;;;1.60;0.67;;;;;;;12.46;100.00;99104.91;5076030;28;20098;-35
2023/10/21 08:29:48;;;;;;;3.58;1.40;;;;;;;12.57;100.00;99106.41;5076348;28;20281;-35
2023/10/21 08:32:13;;;;;;;1.38;0.52;;;;;;;12.63;100.00;99102.53;5075725;28;20028;-36
2023/10/21 08:34:38;;;;;;;2.83;2.20;;;;;;;12.73;100.00;99114.38;5075620;28;20024;-36
2023/10/21 08:37:04;;;;;;;2.40;1.20;;;;;;;12.75;100.00;99095.94;5076055;28;20063;-36
2023/10/21 08:39:30;;;;;;;;;;;;;;;12.91;100.00;99110.94;5076027;28;20035;-36
2023/10/21 08:41:55;;;;;;;1.85;1.10;;;;;;;12.92;100.00;99111.75;5075657;28;20319;-36
2023/10/21 08:44:22;;;;;;;3.22;1.30;;;;;;;12.90;100.00;99103.91;5075799;28;20537;-35
2023/10/21 08:46:49;;;;;;;1.60;0.60;;;;;;;13.01;100.00;99116.25;5076274;28;20035;-35
2023/10/21 08:49:17;;;;;;;1.33;0.50;;;;;;;13.11;100.00;99116.13;5075249;28;20040;-35
2023/10/21 08:51:44;;;;;;;2.70;0.75;;;;;;;13.20;100.00;99129.06;5075911;28;20484;-36
2023/10/21 08:54:12;;;;;;;2.80;0.93;;;;;;;13.22;100.00;99124.97;5075633;28;20028;-35
2023/10/21 08:56:38;;;;;;;1.40;0.60;;;;;;;13.07;100.00;99114.28;5074470;28;20053;-35
2023/10/21 08:59:03;;;;;;;2.75;0.90;;;;;;;13.21;100.00;99131.47;5075160;28;20025;-35
2023/10/21 09:01:29;;;;;;;;;;;;;;;13.30;100.00;99139.84;5076333;28;20107;-35
2023/10/21 09:03:56;;;;;;;2.25;1.02;;;;;;;13.19;100.00;99138.31;5075631;28;20353;-35
2023/10/21 09:06:22;;;;;;;2.75;1.15;;;;;;;13.12;100.00;99134.03;5074528;28;20028;-35
2023/10/21 09:08:48;;;;;;;3.75;1.20;;;;;;;13.24;100.00;99160.81;5074752;28;20021;-35
2023/10/21 09:11:18;;;;;;;;;;;;;;;13.34;100.00;99151.72;5075485;28;20071;-35
2023/10/21 09:13:44;;;;;;;1.50;0.60;;;;;;;13.36;100.00;99157.66;5074703;28;19912;-35
2023/10/21 09:16:21;;;;;;;1.70;0.52;;;;;;;13.45;100.00;99158.66;5075756;28;20119;-35
2023/10/21 09:18:57;;;;;;;1.85;0.70;;;;;;;13.50;100.00;99169.44;5074605;28;20041;-35
2023/10/21 09:21:37;;;;;;;3.13;0.73;;;;;;;13.39;100.00;99157.09;5074664;28;20112;-35
2023/10/21 09:24:09;;;;;;;3.03;0.80;;;;;;;13.47;100.00;99166.50;5074951;28;20340;-35
2023/10/21 09:26:39;;;;;;;1.55;0.70;;;;;;;13.61;100.00;99168.19;5073880;28;20082;-35
2023/10/21 09:29:20;;;;;;;1.75;0.60;;;;;;;13.70;100.00;99170.28;5074876;28;20536;-35
2023/10/21 09:31:56;;;;;;;2.55;0.60;;;;;;;13.72;100.00;99182.47;5075563;28;20131;-35
2023/10/21 09:34:32;;;;;;;1.75;0.60;;;;;;;13.78;100.00;99175.06;5074388;28;20035;-35
2023/10/21 09:36:58;;;;;;;;;;;;;;;13.89;100.00;99177.34;5069030;28;20112;-36
2023/10/21 09:39:26;;;;;;;25.98;2.45;;;;;;;13.76;100.00;99163.66;5074597;28;19999;-35
2023/10/21 09:41:52;;;;;;;3.25;0.75;;;;;;;13.88;100.00;99180.34;5073717;28;20091;-35
2023/10/21 09:44:18;;;;;;;3.40;0.60;;;;;;;13.93;100.00;99188.44;5074514;28;20451;-35
2023/10/21 09:46:45;;;;;;;2.80;0.88;;;;;;;13.98;100.00;99190.28;5074660;28;20116;-35
2023/10/21 09:49:13;;;;;;;2.83;0.90;;;;;;;13.97;100.00;99197.63;5074041;28;20552;-35
2023/10/21 09:51:52;;;;;;;1.65;0.80;;;;;;;13.95;100.00;99209.88;5074604;28;20024;-35
2023/10/21 09:54:26;;;;;;;2.47;0.80;;;;;;;13.97;100.00;99203.06;5074547;28;20511;-35
2023/10/21 09:56:53;;;;;;;2.33;0.93;;;;;;;14.05;100.00;99215.97;5074241;28;20049;-35
2023/10/21 09:59:21;;;;;;;3.22;0.75;;;;;;;14.12;100.00;99208.28;5074232;28;20029;-35
2023/10/21 10:01:48;;;;;;;2.80;0.70;;;;;;;14.18;100.00;99219.88;5073937;28;20115;-35
2023/10/21 10:04:14;;;;;;;3.15;0.93;;;;;;;14.19;100.00;99213.34;5074422;28;20043;-35
2023/10/21 10:06:40;;;;;;;3.22;0.80;;;;;;;14.29;100.00;99221.34;5074923;28;20110;-36
2023/10/21 10:09:07;;;;;;;2.40;0.80;;;;;;;14.29;100.00;99234.94;5073722;28;20111;-35
2023/10/21 10:11:36;;;;;;;2.15;0.65;;;;;;;14.21;100.00;99240.25;5074288;28;20051;-35
2023/10/21 10:14:02;;;;;;;2.50;0.75;;;;;;;14.23;100.00;99233.41;5073965;28;20111;-35
2023/10/21 10:16:28;;;;;;;1.92;0.68;;;;;;;14.30;100.00;99241.19;5074190;28;20435;-35
2023/10/21 10:18:56;;;;;;;3.40;0.98;;;;;;;14.44;100.00;99247.50;5073884;28;20064;-36
2023/10/21 10:21:22;;;;;;;3.97;0.75;;;;;;;14.49;100.00;99231.13;5074193;28;20039;-36
2023/10/21 10:23:51;;;;;;;2.05;0.70;;;;;;;14.49;100.00;99242.00;5073729;28;20032;-35
2023/10/21 10:26:36;;;;;;;1.92;0.88;;;;;;;14.60;100.00;99245.41;5074373;28;20028;-36
2023/10/21 10:29:26;;;;;;;1.98;0.88;;;;;;;14.64;100.00;99251.84;5073527;28;20504;-36
2023/10/21 10:32:14;;;;;;;4.93;1.35;;;;;;;14.63;100.00;99253.75;5074091;28;20107;-36
2023/10/21 10:35:09;;;;;;;5.95;1.40;;;;;;;14.75;100.00;99252.50;5073675;28;20028;-36
2023/10/21 10:37:35;;;;;;;4.38;1.38;;;;;;;14.82;100.00;99261.09;5068652;28;20544;-36
2023/10/21 10:40:18;;;;;;;2.30;0.85;;;;;;;14.72;100.00;99244.91;5073530;28;20388;-36
2023/10/21 10:42:43;;;;;;;3.70;0.70;;;;;;;14.74;100.00;99269.91;5073647;28;20054;-36
2023/10/21 10:45:09;;;;;;;2.80;1.02;;;;;;;14.74;100.00;99253.59;5073619;28;20111;-36
2023/10/21 10:47:35;;;;;;;;;;;;;;;14.85;100.00;99272.19;5074828;28;20039;-36
2023/10/21 10:50:00;;;;;;;3.25;1.10;;;;;;;14.90;100.00;99265.84;5073860;28;19915;-36
2023/10/21 10:52:32;;;;;;;;;;;;;;;15.05;100.00;99264.78;5073775;28;20074;-36
2023/10/21 10:54:58;;;;;;;4.65;0.82;;;;;;;15.11;100.00;99267.09;5073429;28;19908;-36
2023/10/21 10:57:24;;;;;;;4.20;0.95;;;;;;;15.24;100.00;99268.25;5072412;28;20056;-36
2023/10/21 10:59:50;;;;;;;7.45;2.05;;;;;;;15.35;100.00;99271.59;5073501;28;20111;-36
2023/10/21 11:02:16;;;;;;;;;;;;;;;15.52;100.00;99268.28;5072989;28;20024;-36
2023/10/21 11:04:44;;;;;;;3.15;1.13;;;;;;;15.47;100.00;99277.38;5073360;28;19908;-36
2023/10/21 11:07:11;;;;;;;4.43;1.10;;;;;;;15.56;100.00;99282.91;5073525;28;20025;-36
2023/10/21 11:09:36;;;;;;;3.28;0.95;;;;;;;15.32;100.00;99269.47;5073129;28;20086;-35
2023/10/21 11:12:02;;;;;;;3.42;1.02;;;;;;;15.20;100.00;99275.41;5073194;28;20029;-35
2023/10/21 11:14:27;;;;;;;2.45;1.00;;;;;;;15.05;100.00;99276.47;5073148;28;20051;-36
2023/10/21 11:16:53;;;;;;;;;;;;;;;15.08;100.00;99286.78;5073029;28;20081;-35
2023/10/21 11:19:18;;;;;;;3.78;1.30;;;;;;;14.94;100.00;99275.03;5073198;28;19919;-35
2023/10/21 11:21:48;;;;;;;;;;;;;;;15.06;100.00;99288.97;5074235;28;20056;-35
2023/10/21 11:24:14;;;;;;;4.20;1.10;;;;;;;14.95;100.00;99303.88;5073199;28;19923;-35